Time;durP1;ratioP1;P1;durP2;ratioP2;P2;SDS_P1;SDS_P2;PMS_P1;PMS_P2;Temp;Humidity;BMP_temperature;BMP_pressure;BME280_temperature;BME280_humidity;BME280_pressure;Samples;Min_cycle;Max_cycle;Signal;HPM_P1;HPM_P2
2022/10/26 00:00:00;;;;;;;8.30;4.05;;;12.00;98.70;;;;;;4892326;29;20040;-77
2022/10/26 00:02:26;;;;;;;5.47;3.85;;;12.00;98.60;;;;;;4897100;29;20024;-78
2022/10/26 00:04:52;;;;;;;7.57;4.25;;;12.00;98.60;;;;;;4894378;29;20580;-78
2022/10/26 00:07:18;;;;;;;7.05;3.70;;;12.00;98.60;;;;;;4887750;29;20028;-77
2022/10/26 00:09:43;;;;;;;8.57;4.50;;;12.00;98.50;;;;;;4898609;29;20028;-77
2022/10/26 00:12:09;;;;;;;5.85;3.97;;;12.00;98.50;;;;;;4892881;29;20032;-78
2022/10/26 00:14:35;;;;;;;9.52;3.83;;;12.00;98.40;;;;;;4896911;29;20391;-78
2022/10/26 00:17:00;;;;;;;7.10;4.05;;;12.00;98.50;;;;;;4890825;29;20940;-78
2022/10/26 00:19:26;;;;;;;5.47;3.53;;;12.00;98.50;;;;;;4897592;29;20040;-78
2022/10/26 00:21:52;;;;;;;8.05;4.25;;;12.00;98.50;;;;;;4893699;29;20032;-77
2022/10/26 00:24:18;;;;;;;6.30;4.63;;;12.00;98.50;;;;;;4888324;29;20479;-78
2022/10/26 00:26:43;;;;;;;5.10;3.97;;;12.00;98.70;;;;;;4893464;29;20479;-77
2022/10/26 00:29:11;;;;;;;8.27;4.53;;;12.00;98.50;;;;;;4899456;29;20586;-78
2022/10/26 00:31:38;;;;;;;6.72;3.70;;;12.00;98.60;;;;;;4897457;29;20095;-77
2022/10/26 00:34:03;;;;;;;5.95;3.90;;;12.00;98.60;;;;;;4894596;29;20049;-78
2022/10/26 00:36:29;;;;;;;5.90;3.35;;;12.00;98.60;;;;;;4897072;29;20131;-77
2022/10/26 00:38:55;;;;;;;4.15;3.28;;;11.90;98.50;;;;;;4896447;29;20446;-78
2022/10/26 00:41:25;;;;;;;3.65;3.03;;;11.90;98.40;;;;;;4894470;29;20060;-76
2022/10/26 00:43:51;;;;;;;4.30;2.72;;;11.90;98.30;;;;;;4889459;29;20040;-77
2022/10/26 00:46:25;;;;;;;4.72;3.33;;;11.80;98.20;;;;;;4896240;29;20531;-77
2022/10/26 00:49:05;;;;;;;4.82;3.00;;;11.80;97.90;;;;;;4892741;29;20728;-77
2022/10/26 00:51:45;;;;;;;3.40;2.60;;;11.70;97.80;;;;;;4896123;29;20020;-77
2022/10/26 00:54:15;;;;;;;5.15;3.22;;;11.70;97.40;;;;;;4893976;29;20044;-77
2022/10/26 00:56:41;;;;;;;6.68;2.83;;;11.60;97.50;;;;;;4894852;29;20887;-76
2022/10/26 00:59:10;;;;;;;13.95;4.18;;;11.60;97.80;;;;;;4888720;29;20562;-77
2022/10/26 01:01:39;;;;;;;7.28;3.60;;;11.60;97.80;;;;;;4897955;29;20039;-76
2022/10/26 01:04:05;;;;;;;6.22;3.30;;;11.60;97.50;;;;;;4895748;29;20036;-76
2022/10/26 01:06:33;;;;;;;4.85;3.17;;;11.50;96.70;;;;;;4894379;29;20103;-77
2022/10/26 01:08:59;;;;;;;6.93;3.30;;;11.40;96.20;;;;;;4890924;29;20032;-76
2022/10/26 01:11:25;;;;;;;4.53;2.97;;;11.30;96.20;;;;;;4895036;29;20043;-77
2022/10/26 01:13:53;;;;;;;4.47;2.67;;;11.20;96.30;;;;;;4897908;29;20044;-76
2022/10/26 01:16:56;;;;;;;5.72;3.00;;;11.20;96.70;;;;;;4887811;29;20040;-77
2022/10/26 01:19:40;;;;;;;6.60;3.47;;;11.10;96.90;;;;;;4895391;29;20060;-77
2022/10/26 01:22:14;;;;;;;5.47;2.90;;;11.10;96.80;;;;;;4894395;29;20040;-77
2022/10/26 01:25:02;;;;;;;6.28;3.30;;;11.00;96.60;;;;;;4898142;29;20056;-76
2022/10/26 01:27:44;;;;;;;5.28;2.88;;;11.00;96.40;;;;;;4895930;29;20087;-76
2022/10/26 01:30:18;;;;;;;7.45;3.30;;;10.90;96.60;;;;;;4891720;29;20032;-77
2022/10/26 01:32:50;;;;;;;5.95;3.42;;;10.90;97.00;;;;;;4890514;29;20409;-77
2022/10/26 01:35:19;;;;;;;5.03;3.50;;;10.80;97.50;;;;;;4888238;29;20025;-76
2022/10/26 01:38:10;;;;;;;7.78;3.92;;;10.80;97.80;;;;;;4894112;29;20047;-76
2022/10/26 01:40:45;;;;;;;6.43;3.10;;;10.90;97.80;;;;;;4899964;29;20599;-77
2022/10/26 01:43:13;;;;;;;4.53;3.38;;;10.90;97.40;;;;;;4896185;29;20040;-77
2022/10/26 01:45:42;;;;;;;6.05;3.72;;;10.90;97.40;;;;;;4893918;29;20050;-77
2022/10/26 01:48:13;;;;;;;5.85;3.55;;;10.90;97.50;;;;;;4897884;29;20040;-76
2022/10/26 01:50:42;;;;;;;5.80;3.75;;;10.90;97.60;;;;;;4893194;29;20037;-76
2022/10/26 01:53:12;;;;;;;5.88;3.33;;;10.90;97.70;;;;;;4899799;29;20036;-77
2022/10/26 01:55:42;;;;;;;4.85;3.15;;;10.90;97.50;;;;;;4888740;29;20036;-77
2022/10/26 01:58:35;;;;;;;6.43;3.45;;;10.90;97.40;;;;;;4895110;29;20756;-77
2022/10/26 02:01:41;;;;;;;7.55;3.78;;;10.80;97.50;;;;;;4887605;29;20087;-77
2022/10/26 02:04:18;;;;;;;7.72;3.10;;;10.80;97.70;;;;;;4889993;29;20560;-77
2022/10/26 02:07:39;;;;;;;9.70;3.65;;;10.80;97.70;;;;;;4898864;29;20036;-77
2022/10/26 02:10:44;;;;;;;9.02;3.35;;;10.80;97.60;;;;;;4890747;29;20206;-77
2022/10/26 02:13:15;;;;;;;11.10;4.15;;;10.80;97.50;;;;;;4872584;29;20044;-77
2022/10/26 02:16:14;;;;;;;3.50;3.08;;;10.80;98.20;;;;;;4895584;29;20127;-77
2022/10/26 02:18:50;;;;;;;7.05;3.67;;;10.80;98.70;;;;;;4899446;29;20797;-77
2022/10/26 02:21:20;;;;;;;7.47;4.00;;;10.80;98.30;;;;;;4891891;29;20040;-77
2022/10/26 02:23:48;;;;;;;8.27;4.03;;;10.80;98.00;;;;;;4896485;29;20304;-77
2022/10/26 02:26:18;;;;;;;9.20;4.03;;;10.80;98.00;;;;;;4902670;29;20024;-77
2022/10/26 02:28:50;;;;;;;7.05;4.20;;;10.80;98.00;;;;;;4892634;29;20032;-77
2022/10/26 02:31:18;;;;;;;6.05;3.67;;;10.80;98.10;;;;;;4897374;29;20033;-77
2022/10/26 02:33:48;;;;;;;6.45;3.55;;;10.80;98.50;;;;;;4894924;29;20432;-77
2022/10/26 02:36:18;;;;;;;4.88;3.75;;;10.90;98.30;;;;;;4902273;29;20029;-77
2022/10/26 02:38:45;;;;;;;10.75;4.30;;;10.90;98.20;;;;;;4897426;29;20989;-77
2022/10/26 02:41:14;;;;;;;7.60;3.80;;;10.90;98.30;;;;;;4897242;29;20385;-77
2022/10/26 02:43:46;;;;;;;9.18;4.13;;;10.90;98.30;;;;;;4898630;29;20048;-77
2022/10/26 02:46:16;;;;;;;11.52;7.72;;;10.90;98.20;;;;;;4894897;29;20644;-77
2022/10/26 02:48:42;;;;;;;7.68;3.60;;;10.90;98.00;;;;;;4896621;29;20111;-77
2022/10/26 02:51:25;;;;;;;4.90;3.75;;;10.80;97.90;;;;;;4895652;29;20037;-77
2022/10/26 02:54:00;;;;;;;4.82;3.38;;;10.80;97.90;;;;;;4894127;29;20036;-76
2022/10/26 02:56:39;;;;;;;8.07;3.72;;;10.80;98.10;;;;;;4888247;29;20051;-76
2022/10/26 02:59:07;;;;;;;7.20;4.35;;;10.80;98.00;;;;;;4895670;29;20040;-77
2022/10/26 03:01:34;;;;;;;6.53;3.85;;;10.80;97.90;;;;;;4890979;29;20036;-76
2022/10/26 03:03:59;;;;;;;9.38;3.35;;;10.70;97.80;;;;;;4892596;29;20044;-76
2022/10/26 03:06:25;;;;;;;6.05;3.53;;;10.70;98.00;;;;;;4895622;29;20043;-76
2022/10/26 03:08:51;;;;;;;5.40;3.33;;;10.70;98.00;;;;;;4898974;29;20028;-77
2022/10/26 03:11:17;;;;;;;8.75;3.40;;;10.70;98.00;;;;;;4892702;29;20043;-76
2022/10/26 03:13:43;;;;;;;7.45;4.28;;;10.70;98.00;;;;;;4892034;29;20433;-77
2022/10/26 03:16:10;;;;;;;5.55;3.55;;;10.70;98.00;;;;;;4894966;29;20036;-77
2022/10/26 03:18:35;;;;;;;5.07;3.70;;;10.70;98.00;;;;;;4897974;29;20044;-77
2022/10/26 03:21:01;;;;;;;7.63;3.38;;;10.70;98.00;;;;;;4893326;29;20433;-77
2022/10/26 03:23:27;;;;;;;7.30;3.88;;;10.70;97.90;;;;;;4890983;29;20060;-77
2022/10/26 03:25:57;;;;;;;5.75;4.10;;;10.70;98.00;;;;;;4892963;29;20108;-77
2022/10/26 03:28:23;;;;;;;8.07;3.83;;;10.70;98.10;;;;;;4890496;29;20740;-76
2022/10/26 03:30:49;;;;;;;5.80;3.75;;;10.70;98.20;;;;;;4899563;29;20028;-77
2022/10/26 03:33:14;;;;;;;5.18;4.03;;;10.70;98.40;;;;;;4894969;29;20488;-77
2022/10/26 03:35:40;;;;;;;7.82;4.03;;;10.70;98.40;;;;;;4898278;29;20035;-77
2022/10/26 03:38:06;;;;;;;7.43;4.32;;;10.70;98.40;;;;;;4893504;29;20036;-77
2022/10/26 03:40:31;;;;;;;6.88;3.35;;;10.70;98.40;;;;;;4891368;29;20033;-76
2022/10/26 03:42:57;;;;;;;6.93;4.00;;;10.70;98.30;;;;;;4890823;29;20033;-77
2022/10/26 03:45:23;;;;;;;5.55;3.92;;;10.70;98.30;;;;;;4894747;29;20100;-77
2022/10/26 03:47:49;;;;;;;5.97;3.17;;;10.70;98.20;;;;;;4897937;29;20036;-77
2022/10/26 03:50:17;;;;;;;5.95;4.40;;;10.70;98.20;;;;;;4896832;29;20119;-77
2022/10/26 03:52:43;;;;;;;10.32;3.92;;;10.70;98.20;;;;;;4896915;29;20532;-77
2022/10/26 03:55:09;;;;;;;7.07;4.47;;;10.70;98.20;;;;;;4896518;29;20107;-77
2022/10/26 03:57:42;;;;;;;8.48;4.32;;;10.70;98.00;;;;;;4892186;29;20504;-76
2022/10/26 04:00:10;;;;;;;6.30;4.03;;;10.60;98.00;;;;;;4894734;29;20100;-76
2022/10/26 04:02:38;;;;;;;5.63;4.05;;;10.60;98.10;;;;;;4893441;29;20482;-77
2022/10/26 04:05:04;;;;;;;6.05;4.00;;;10.60;98.20;;;;;;4890446;29;20087;-77
2022/10/26 04:07:30;;;;;;;6.65;4.05;;;10.60;98.30;;;;;;4894640;29;20047;-77
2022/10/26 04:09:56;;;;;;;9.63;4.15;;;10.60;98.30;;;;;;4896670;29;20032;-77
2022/10/26 04:12:21;;;;;;;8.15;4.00;;;10.60;98.20;;;;;;4899190;29;20061;-77
2022/10/26 04:14:47;;;;;;;5.45;4.03;;;10.50;98.30;;;;;;4900664;29;20035;-76
2022/10/26 04:17:13;;;;;;;4.38;2.97;;;10.60;98.20;;;;;;4894952;29;20028;-77
2022/10/26 04:19:39;;;;;;;5.25;3.60;;;10.50;98.20;;;;;;4896334;29;20037;-76
2022/10/26 04:22:04;;;;;;;8.38;4.78;;;10.50;98.30;;;;;;4892539;29;20040;-77
2022/10/26 04:24:30;;;;;;;7.32;4.22;;;10.50;98.20;;;;;;4895082;29;20032;-77
2022/10/26 04:26:56;;;;;;;7.22;4.85;;;10.50;98.20;;;;;;4896293;29;20044;-77
2022/10/26 04:29:22;;;;;;;7.70;4.47;;;10.50;98.20;;;;;;4894400;29;20032;-76
2022/10/26 04:31:48;;;;;;;6.80;4.80;;;10.50;98.30;;;;;;4901042;29;20070;-77
2022/10/26 04:34:13;;;;;;;6.10;4.30;;;10.50;98.30;;;;;;4889913;29;20040;-77
2022/10/26 04:36:39;;;;;;;8.73;5.07;;;10.50;98.30;;;;;;4896685;29;20784;-77
2022/10/26 04:39:05;;;;;;;9.05;4.95;;;10.50;98.30;;;;;;4893024;29;20070;-76
2022/10/26 04:41:31;;;;;;;7.95;4.80;;;10.50;98.30;;;;;;4893286;29;20925;-77
2022/10/26 04:43:56;;;;;;;8.80;5.10;;;10.50;98.30;;;;;;4892281;29;20037;-76
2022/10/26 04:46:22;;;;;;;11.38;6.03;;;10.50;98.30;;;;;;4897545;29;20055;-76
2022/10/26 04:48:48;;;;;;;9.52;5.15;;;10.50;98.30;;;;;;4901704;29;20035;-77
2022/10/26 04:51:13;;;;;;;9.65;5.30;;;10.50;98.30;;;;;;4898971;29;20036;-77
2022/10/26 04:53:39;;;;;;;10.82;5.25;;;10.50;98.20;;;;;;4896364;29;20041;-77
2022/10/26 04:56:05;;;;;;;9.40;5.00;;;10.50;98.30;;;;;;4898470;29;20100;-76
2022/10/26 04:58:31;;;;;;;9.48;4.70;;;10.40;98.30;;;;;;4902494;29;20032;-77
2022/10/26 05:00:57;;;;;;;9.00;5.70;;;10.50;98.50;;;;;;4898189;29;20033;-76
2022/10/26 05:03:22;;;;;;;7.78;4.50;;;10.40;98.50;;;;;;4896034;29;20039;-76
2022/10/26 05:05:48;;;;;;;7.93;4.97;;;10.40;98.50;;;;;;4896479;29;20030;-77
2022/10/26 05:08:14;;;;;;;7.53;5.75;;;10.40;98.40;;;;;;4892209;29;20032;-76
2022/10/26 05:10:40;;;;;;;10.57;5.03;;;10.40;98.30;;;;;;4894957;29;20032;-76
2022/10/26 05:13:06;;;;;;;9.90;6.07;;;10.40;98.30;;;;;;4894759;29;20044;-76
2022/10/26 05:15:32;;;;;;;8.80;5.75;;;10.40;98.30;;;;;;4894474;29;20492;-76
2022/10/26 05:18:01;;;;;;;10.45;5.97;;;10.40;98.20;;;;;;4885737;29;20072;-77
2022/10/26 05:20:30;;;;;;;11.27;6.30;;;10.40;98.30;;;;;;4898441;29;20067;-77
2022/10/26 05:23:01;;;;;;;8.77;5.70;;;10.40;98.30;;;;;;4891350;29;20147;-77
2022/10/26 05:25:29;;;;;;;9.32;5.80;;;10.30;98.20;;;;;;4891991;29;20036;-78
2022/10/26 05:27:59;;;;;;;9.50;5.38;;;10.30;98.30;;;;;;4896360;29;20690;-78
2022/10/26 05:30:26;;;;;;;11.43;5.93;;;10.30;98.30;;;;;;4892430;29;20389;-79
2022/10/26 05:32:56;;;;;;;9.50;5.28;;;10.30;98.30;;;;;;4895453;29;20197;-76
2022/10/26 05:35:23;;;;;;;11.13;6.78;;;10.30;98.30;;;;;;4896256;29;20067;-75
2022/10/26 05:37:48;;;;;;;11.95;6.10;;;10.30;98.20;;;;;;4891947;29;20059;-75
2022/10/26 05:40:15;;;;;;;9.70;6.28;;;10.30;98.20;;;;;;4898974;28;20819;-75
2022/10/26 05:47:51;;;;;;;14.95;6.25;;;10.30;98.30;;;;;;4933311;29;20673;-69
2022/10/26 05:50:16;;;;;;;12.80;6.57;;;10.30;98.30;;;;;;4943317;28;20035;-69
2022/10/26 05:52:47;;;;;;;9.98;6.22;;;10.30;98.20;;;;;;4934998;28;20047;-68
2022/10/26 05:55:15;;;;;;;12.80;7.10;;;10.30;98.50;;;;;;4945234;28;20051;-68
2022/10/26 05:57:41;;;;;;;9.75;6.13;;;10.30;98.30;;;;;;4939658;28;20036;-72
2022/10/26 06:00:22;;;;;;;10.70;6.40;;;10.30;98.30;;;;;;4949611;28;20445;-73
2022/10/26 06:03:07;;;;;;;9.95;6.53;;;10.30;98.40;;;;;;4934387;28;20019;-73
2022/10/26 06:05:55;;;;;;;9.25;6.25;;;10.30;98.50;;;;;;4938194;28;20035;-73
2022/10/26 06:08:24;;;;;;;10.82;6.75;;;10.30;98.40;;;;;;4950257;28;20198;-73
2022/10/26 06:10:50;;;;;;;8.98;6.28;;;10.30;98.30;;;;;;4939623;28;20087;-73
2022/10/26 06:13:17;;;;;;;8.68;6.35;;;10.30;98.20;;;;;;4937003;28;20127;-73
2022/10/26 06:15:51;;;;;;;16.45;6.88;;;10.30;98.30;;;;;;4941516;28;20046;-74
2022/10/26 06:18:46;;;;;;;9.77;5.88;;;10.30;98.30;;;;;;4941337;28;20031;-72
2022/10/26 06:21:31;;;;;;;8.57;5.88;;;10.30;98.50;;;;;;4925652;28;20154;-72
2022/10/26 06:24:14;;;;;;;14.35;6.57;;;10.40;98.70;;;;;;4933161;28;20046;-73
2022/10/26 06:27:03;;;;;;;8.38;6.20;;;10.40;98.70;;;;;;4936408;28;20360;-72
2022/10/26 06:29:48;;;;;;;11.80;6.85;;;10.40;98.60;;;;;;4946962;28;20209;-72
2022/10/26 06:32:16;;;;;;;10.13;6.53;;;10.50;98.70;;;;;;4941547;28;20035;-73
2022/10/26 06:34:46;;;;;;;9.48;6.13;;;10.50;98.60;;;;;;4940165;28;20146;-73
2022/10/26 06:37:12;;;;;;;9.82;5.72;;;10.50;98.60;;;;;;4939746;28;20510;-72
2022/10/26 06:39:44;;;;;;;9.65;6.15;;;10.50;98.70;;;;;;4936599;28;20037;-76
2022/10/26 06:42:10;;;;;;;9.23;6.05;;;10.60;98.70;;;;;;4946251;28;20069;-74
2022/10/26 06:44:36;;;;;;;8.50;5.38;;;10.60;98.60;;;;;;4941942;28;20170;-74
2022/10/26 06:47:14;;;;;;;9.90;5.63;;;10.60;98.60;;;;;;4942628;28;20609;-74
2022/10/26 06:50:04;;;;;;;9.57;5.47;;;10.70;98.80;;;;;;4942468;28;20070;-74
2022/10/26 06:52:43;;;;;;;7.43;5.25;;;10.70;98.80;;;;;;4936697;28;20031;-74
2022/10/26 06:55:15;;;;;;;7.60;5.43;;;10.70;98.80;;;;;;4936678;28;20126;-73
2022/10/26 06:57:43;;;;;;;9.77;6.07;;;10.80;98.80;;;;;;4939729;28;20051;-74
2022/10/26 07:00:22;;;;;;;8.35;5.70;;;10.80;98.80;;;;;;4939138;28;20047;-73
2022/10/26 07:02:51;;;;;;;8.05;5.60;;;10.80;98.80;;;;;;4940241;28;20722;-74
2022/10/26 07:05:17;;;;;;;6.75;5.07;;;10.90;98.90;;;;;;4939109;28;20923;-74
2022/10/26 07:07:45;;;;;;;7.07;5.10;;;10.90;98.90;;;;;;4937380;28;20035;-73
2022/10/26 07:10:12;;;;;;;8.65;5.22;;;11.00;98.90;;;;;;4934516;28;20832;-73
2022/10/26 07:12:38;;;;;;;7.50;5.65;;;11.00;99.00;;;;;;4936100;28;20219;-72
2022/10/26 07:15:04;;;;;;;8.20;5.80;;;11.00;99.00;;;;;;4935918;28;20034;-73
2022/10/26 07:17:30;;;;;;;9.50;5.55;;;11.10;99.00;;;;;;4935875;28;20031;-72
2022/10/26 07:19:56;;;;;;;12.57;6.07;;;11.10;98.90;;;;;;4930454;28;20050;-73
2022/10/26 07:22:22;;;;;;;9.35;5.70;;;11.20;99.00;;;;;;4938722;28;20031;-72
2022/10/26 07:24:50;;;;;;;8.68;5.65;;;11.30;99.00;;;;;;4934148;28;20039;-72
2022/10/26 07:27:18;;;;;;;9.07;6.05;;;11.30;99.00;;;;;;4936306;28;20518;-72
2022/10/26 07:29:44;;;;;;;7.68;5.07;;;11.40;99.00;;;;;;4933609;28;20573;-72
2022/10/26 07:32:10;;;;;;;9.27;6.13;;;11.40;99.00;;;;;;4939113;28;20110;-72
2022/10/26 07:34:36;;;;;;;9.25;6.60;;;11.50;99.00;;;;;;4940654;28;20515;-72
2022/10/26 07:37:02;;;;;;;11.00;6.70;;;11.60;99.10;;;;;;4943160;28;20039;-73
2022/10/26 07:39:31;;;;;;;11.90;6.68;;;11.80;99.00;;;;;;4942382;28;20118;-71
2022/10/26 07:41:57;;;;;;;9.73;5.97;;;11.90;98.80;;;;;;4935126;28;20110;-72
2022/10/26 07:44:23;;;;;;;10.25;7.45;;;11.90;98.80;;;;;;4944927;28;20826;-72
2022/10/26 07:46:49;;;;;;;9.30;6.00;;;11.90;98.70;;;;;;4932558;28;20027;-72
2022/10/26 07:49:15;;;;;;;11.50;6.55;;;12.00;98.80;;;;;;4938750;28;20045;-76
2022/10/26 07:51:41;;;;;;;9.70;6.85;;;12.10;98.70;;;;;;4935615;29;20047;-77
2022/10/26 07:54:07;;;;;;;9.57;6.28;;;12.10;98.70;;;;;;4941162;28;20073;-77
2022/10/26 07:56:33;;;;;;;10.82;5.88;;;12.10;98.60;;;;;;4935510;28;20111;-77
2022/10/26 07:58:58;;;;;;;10.00;6.35;;;12.20;98.80;;;;;;4934468;28;20036;-76
2022/10/26 08:01:24;;;;;;;13.98;6.47;;;12.30;98.80;;;;;;4938548;28;20530;-77
2022/10/26 08:03:52;;;;;;;9.73;6.60;;;12.30;98.70;;;;;;4931735;28;20027;-78
2022/10/26 08:06:18;;;;;;;9.60;5.63;;;12.40;98.50;;;;;;4937306;28;20023;-78
2022/10/26 08:08:45;;;;;;;8.55;6.13;;;12.40;98.50;;;;;;4933909;28;20120;-77
2022/10/26 08:11:11;;;;;;;10.05;6.00;;;12.50;98.60;;;;;;4947804;28;20141;-77
2022/10/26 08:13:37;;;;;;;13.80;7.00;;;12.60;98.60;;;;;;4934945;28;20030;-77
2022/10/26 08:16:04;;;;;;;9.65;6.10;;;12.70;98.60;;;;;;4934929;28;20495;-77
2022/10/26 08:18:30;;;;;;;9.82;5.70;;;12.90;98.50;;;;;;4941477;28;20387;-75
2022/10/26 08:21:04;;;;;;;7.90;6.07;;;13.00;98.30;;;;;;4940415;28;20039;-75
2022/10/26 08:23:31;;;;;;;14.77;6.15;;;13.00;98.40;;;;;;4941320;28;20024;-77
2022/10/26 08:26:00;;;;;;;10.93;6.38;;;13.10;98.10;;;;;;4938278;28;20039;-75
2022/10/26 08:28:27;;;;;;;10.27;5.50;;;13.30;97.80;;;;;;4938397;28;20031;-74
2022/10/26 08:30:53;;;;;;;8.60;5.13;;;13.40;97.20;;;;;;4940918;28;20045;-74
2022/10/26 08:33:19;;;;;;;6.68;4.85;;;13.40;96.80;;;;;;4933499;28;20051;-74
2022/10/26 08:35:45;;;;;;;6.90;4.82;;;13.40;96.90;;;;;;4944703;28;20035;-74
2022/10/26 08:38:11;;;;;;;10.40;6.30;;;13.50;97.10;;;;;;4939790;28;20174;-74
2022/10/26 08:40:39;;;;;;;14.70;6.20;;;13.50;97.10;;;;;;4945370;28;20501;-74
2022/10/26 08:43:18;;;;;;;11.20;5.57;;;13.60;96.90;;;;;;4938856;28;20040;-71
2022/10/26 08:45:51;;;;;;;11.85;4.68;;;13.80;96.90;;;;;;4938272;28;20035;-74
2022/10/26 08:48:21;;;;;;;8.73;4.13;;;14.10;96.30;;;;;;4936517;28;20218;-71
2022/10/26 08:50:55;;;;;;;7.38;4.07;;;14.50;95.90;;;;;;4941038;28;20587;-77
2022/10/26 08:53:24;;;;;;;7.68;4.13;;;14.90;94.50;;;;;;4935658;29;20139;-81
2022/10/26 08:55:57;;;;;;;6.47;3.83;;;15.20;94.00;;;;;;4930923;28;20518;-74
2022/10/26 08:58:27;;;;;;;6.25;3.95;;;15.20;93.60;;;;;;4935560;29;20605;-74
2022/10/26 09:00:53;;;;;;;5.70;3.20;;;15.40;93.70;;;;;;4934636;28;20031;-72
2022/10/26 09:03:19;;;;;;;4.63;3.05;;;15.40;93.80;;;;;;4937865;28;20035;-73
2022/10/26 09:06:04;;;;;;;5.57;2.97;;;15.70;94.00;;;;;;4941449;28;20042;-73
2022/10/26 09:09:03;;;;;;;4.15;2.95;;;16.10;92.50;;;;;;4943307;28;20529;-72
2022/10/26 09:11:54;;;;;;;4.00;3.10;;;17.70;90.40;;;;;;4943607;28;20059;-74
2022/10/26 09:14:39;;;;;;;4.22;2.67;;;19.00;83.60;;;;;;4936824;28;20055;-73
2022/10/26 09:17:17;;;;;;;3.38;2.55;;;20.20;77.50;;;;;;4944979;28;20074;-73
2022/10/26 09:20:04;;;;;;;3.45;2.80;;;21.20;71.80;;;;;;4940344;28;20785;-72
2022/10/26 09:22:48;;;;;;;4.75;2.13;;;22.00;68.70;;;;;;4946337;28;20039;-72
2022/10/26 09:25:26;;;;;;;9.48;2.95;;;22.30;67.70;;;;;;4941651;28;20129;-72
2022/10/26 09:28:00;;;;;;;4.88;2.42;;;22.40;66.00;;;;;;4934787;29;20114;-72
2022/10/26 09:30:27;;;;;;;3.55;1.88;;;22.70;65.00;;;;;;4945855;28;20046;-72
2022/10/26 09:33:02;;;;;;;2.83;1.58;;;23.00;63.50;;;;;;4944310;28;20157;-72
2022/10/26 09:36:02;;;;;;;3.78;1.38;;;22.70;62.80;;;;;;4938345;28;20030;-72
2022/10/26 09:38:31;;;;;;;4.15;1.80;;;22.20;64.10;;;;;;4941277;28;20034;-72
2022/10/26 09:41:05;;;;;;;2.88;1.30;;;22.30;64.40;;;;;;4938485;28;20039;-72
2022/10/26 09:43:49;;;;;;;2.28;1.50;;;22.70;62.80;;;;;;4946785;28;20031;-71
2022/10/26 09:46:20;;;;;;;2.85;1.60;;;22.90;62.60;;;;;;4937028;29;20041;-74
2022/10/26 09:48:52;;;;;;;2.92;2.00;;;23.20;61.40;;;;;;4942816;28;20098;-72
2022/10/26 09:51:18;;;;;;;3.55;1.27;;;23.60;59.60;;;;;;4934879;28;20027;-73
2022/10/26 09:53:44;;;;;;;3.15;1.23;;;23.30;59.90;;;;;;4945450;28;20492;-72
2022/10/26 09:56:12;;;;;;;3.60;1.30;;;22.70;61.20;;;;;;4937442;28;20138;-75
2022/10/26 09:58:58;;;;;;;3.17;1.45;;;22.00;64.00;;;;;;4938345;28;20059;-73
2022/10/26 10:01:31;;;;;;;9.15;1.25;;;21.80;66.40;;;;;;4938612;28;20035;-74
2022/10/26 10:04:12;;;;;;;1.88;0.95;;;21.90;65.20;;;;;;4940869;28;20039;-72
2022/10/26 10:06:39;;;;;;;3.08;1.38;;;21.80;65.10;;;;;;4942995;28;20102;-73
2022/10/26 10:09:10;;;;;;;4.00;1.55;;;21.80;65.30;;;;;;4931667;28;20039;-74
2022/10/26 10:11:57;;;;;;;2.55;1.23;;;21.80;65.50;;;;;;4934173;28;20439;-74
2022/10/26 10:14:32;;;;;;;3.28;1.60;;;22.10;64.10;;;;;;4939718;28;20039;-74
2022/10/26 10:17:04;;;;;;;3.15;0.90;;;23.10;62.40;;;;;;4940701;28;20042;-73
2022/10/26 10:19:35;;;;;;;2.13;1.15;;;23.80;58.90;;;;;;4940822;28;20046;-79
2022/10/26 10:22:11;;;;;;;3.40;1.30;;;24.20;56.70;;;;;;4944501;28;20043;-72
2022/10/26 10:24:39;;;;;;;;;;;24.80;55.30;;;;;;4933452;28;20031;-72
2022/10/26 10:27:17;;;;;;;3.63;1.98;;;25.30;54.40;;;;;;4937968;28;19914;-73
2022/10/26 10:29:48;;;;;;;3.22;1.38;;;26.10;52.70;;;;;;4926367;29;20031;-72
2022/10/26 10:32:20;;;;;;;6.10;1.55;;;26.40;50.40;;;;;;4943388;28;20590;-72
2022/10/26 10:34:46;;;;;;;3.40;0.90;;;26.70;51.00;;;;;;4929564;28;20122;-72
2022/10/26 10:37:37;;;;;;;3.63;1.15;;;26.40;49.70;;;;;;4943018;28;20035;-72
2022/10/26 10:40:06;;;;;;;1.90;1.15;;;26.10;50.50;;;;;;4936782;28;20040;-72
2022/10/26 10:42:38;;;;;;;4.45;1.50;;;26.30;50.30;;;;;;4939729;28;20042;-71
2022/10/26 10:45:06;;;;;;;4.35;0.90;;;27.20;49.60;;;;;;4937580;29;20129;-71
2022/10/26 10:47:34;;;;;;;2.08;1.08;;;28.00;47.60;;;;;;4935485;28;20865;-71
2022/10/26 10:50:03;;;;;;;5.50;1.05;;;28.40;45.10;;;;;;4931259;28;20031;-72
2022/10/26 10:52:31;;;;;;;1.92;1.00;;;28.60;45.00;;;;;;4939610;28;20050;-72
2022/10/26 10:55:13;;;;;;;3.63;1.20;;;28.30;45.90;;;;;;4938111;28;20036;-72
2022/10/26 10:58:04;;;;;;;1.95;0.82;;;28.20;45.40;;;;;;4934953;29;20090;-71
2022/10/26 11:00:33;;;;;;;6.32;1.20;;;26.50;48.30;;;;;;4935178;28;20035;-72
2022/10/26 11:03:01;;;;;;;2.60;1.00;;;24.40;53.20;;;;;;4938419;28;20039;-76
2022/10/26 11:05:56;;;;;;;1.63;0.90;;;22.70;56.80;;;;;;4937149;28;20042;-72
2022/10/26 11:08:27;;;;;;;2.00;1.08;;;21.40;60.90;;;;;;4935604;28;20041;-71
2022/10/26 11:11:05;;;;;;;3.10;1.23;;;20.70;64.60;;;;;;4948598;28;20039;-72
2022/10/26 11:13:33;;;;;;;1.83;1.23;;;20.30;67.30;;;;;;4937098;29;20479;-72
2022/10/26 11:16:04;;;;;;;2.47;0.98;;;20.10;67.90;;;;;;4930369;28;20130;-71
2022/10/26 11:18:49;;;;;;;2.05;0.80;;;19.90;68.10;;;;;;4934367;29;20035;-72
2022/10/26 11:21:27;;;;;;;5.55;1.10;;;19.90;69.10;;;;;;4939848;28;20046;-72
2022/10/26 11:24:35;;;;;;;3.58;1.00;;;19.80;70.20;;;;;;4927270;29;20070;-72
2022/10/26 11:27:09;;;;;;;1.70;1.20;;;19.70;70.10;;;;;;4917847;28;20041;-72
2022/10/26 11:29:46;;;;;;;6.32;2.95;;;19.70;72.10;;;;;;4940169;28;20040;-72
2022/10/26 11:32:42;;;;;;;3.55;2.10;;;19.70;71.10;;;;;;4944288;28;20123;-73
2022/10/26 11:35:25;;;;;;;3.75;1.45;;;19.80;71.20;;;;;;4936390;28;20055;-73
2022/10/26 11:38:08;;;;;;;2.72;2.03;;;19.70;70.80;;;;;;4934883;28;20508;-73
2022/10/26 11:40:46;;;;;;;2.40;1.88;;;19.60;72.60;;;;;;4932173;28;20920;-73
2022/10/26 11:43:29;;;;;;;4.15;1.08;;;19.60;72.70;;;;;;4942759;28;20042;-72
2022/10/26 11:46:10;;;;;;;4.50;1.30;;;19.60;72.00;;;;;;4937348;28;20071;-74
2022/10/26 11:48:53;;;;;;;4.55;1.48;;;19.50;73.70;;;;;;4943427;28;20497;-73
2022/10/26 11:51:49;;;;;;;6.45;1.27;;;19.50;73.90;;;;;;4939339;28;20122;-73
2022/10/26 11:54:54;;;;;;;4.95;1.20;;;19.60;74.00;;;;;;4915107;29;20055;-73
2022/10/26 11:57:22;;;;;;;5.05;1.40;;;19.60;74.80;;;;;;4919999;29;20938;-72
2022/10/26 12:00:08;;;;;;;5.43;1.85;;;19.70;73.40;;;;;;4914137;29;20035;-79
2022/10/26 12:02:40;;;;;;;4.75;2.28;;;19.60;75.40;;;;;;4925077;29;20035;-82
2022/10/26 12:05:41;;;;;;;15.88;10.02;;;19.70;74.20;;;;;;4924767;29;20055;-77
2022/10/26 12:08:23;;;;;;;5.47;2.60;;;19.70;75.30;;;;;;4918399;29;20028;-76
2022/10/26 12:10:57;;;;;;;4.00;2.90;;;19.80;75.10;;;;;;4916058;29;20032;-76
2022/10/26 12:13:43;;;;;;;4.25;2.22;;;20.00;73.60;;;;;;4923871;28;20028;-76
2022/10/26 12:16:54;;;;;;;2.42;1.42;;;20.00;73.40;;;;;;4918553;29;20059;-76
2022/10/26 12:19:32;;;;;;;5.78;2.10;;;19.90;72.20;;;;;;4919296;29;20040;-76
2022/10/26 12:21:58;;;;;;;5.28;1.65;;;19.90;73.40;;;;;;4920030;29;20076;-76
2022/10/26 12:24:32;;;;;;;4.28;2.08;;;19.80;73.00;;;;;;4913007;29;20119;-77
2022/10/26 12:27:03;;;;;;;5.22;1.60;;;19.90;74.30;;;;;;4922231;29;20036;-76
2022/10/26 12:29:36;;;;;;;3.95;1.55;;;19.90;74.00;;;;;;4919659;29;20035;-73
2022/10/26 12:32:30;;;;;;;4.63;1.30;;;19.80;73.40;;;;;;4922180;28;20174;-75
2022/10/26 12:34:59;;;;;;;5.70;1.50;;;19.90;73.40;;;;;;4920974;29;20067;-75
2022/10/26 12:37:34;;;;;;;7.60;1.25;;;19.80;73.50;;;;;;4914915;29;20040;-75
2022/10/26 12:40:31;;;;;;;2.70;0.93;;;19.70;74.50;;;;;;4926570;29;20043;-75
2022/10/26 12:43:17;;;;;;;2.72;1.10;;;19.80;73.70;;;;;;4917511;29;20573;-75
2022/10/26 12:45:45;;;;;;;3.08;0.93;;;19.80;73.90;;;;;;4925052;29;20034;-75
2022/10/26 12:48:37;;;;;;;2.53;0.77;;;19.90;72.50;;;;;;4920684;29;20048;-75
2022/10/26 12:51:21;;;;;;;4.95;1.23;;;19.80;72.40;;;;;;4912459;29;20036;-75
2022/10/26 12:53:56;;;;;;;2.22;1.30;;;19.80;72.80;;;;;;4916914;29;20056;-75
2022/10/26 12:56:50;;;;;;;4.47;1.13;;;19.70;73.60;;;;;;4919889;29;20036;-74
2022/10/26 12:59:45;;;;;;;2.00;1.10;;;19.70;74.00;;;;;;4919183;29;20035;-73
2022/10/26 13:02:36;;;;;;;1.73;0.82;;;19.70;74.60;;;;;;4917670;29;20036;-73
2022/10/26 13:05:29;;;;;;;3.33;1.27;;;19.80;74.50;;;;;;4913732;29;20056;-73
2022/10/26 13:08:07;;;;;;;1.30;1.10;;;19.80;73.80;;;;;;4918803;29;20039;-72
2022/10/26 13:10:35;;;;;;;2.80;0.90;;;19.80;73.90;;;;;;4922821;29;20073;-72
2022/10/26 13:13:04;;;;;;;3.55;1.35;;;19.70;73.60;;;;;;4918792;29;20031;-72
2022/10/26 13:15:51;;;;;;;1.75;0.90;;;19.70;73.80;;;;;;4918504;29;20035;-72
2022/10/26 13:18:19;;;;;;;2.53;0.93;;;19.70;75.10;;;;;;4910978;29;20033;-71